Meteo Giornale » Osservazioni meteo Stati Uniti (USA) » Guthrie
ore: 15:53 - Osservazioni Meteo Guthrie
Lat. 35° 51' N Lon. 97° 24' W Alt. 327 metri s.l.m.
38 °C
Poco Nuvoloso
Temp. 24 Ore
24 °C
39 °C
Sud/Sud-Ovest
20.3 Km/h
Dew point 14 °C
Umidità 24 %
Visibilità 10 Km
Il sole sorge alle ore 07:00
Il sole tramonta alle ore 19:58
| Data e Ora | Cielo e Fenomeni | T °C | DP °C | Um. % | Pres. hPa | Vis. km | Vento km/h | |
|---|---|---|---|---|---|---|---|---|
| Oggi h: 15:53 | Poco Nuvoloso | 38 | 14 | 24 | 1013 | 10 | S/SO 20.3 | |
| Oggi h: 14:53 | Nuvoloso | 37 | 14 | 25 | 1014 | 10 | S/SE 11.1 | |
| Oggi h: 13:53 | Nuvoloso | 38 | 14 | 24 | 1015 | 10 | S 20.3 | |
| Oggi h: 12:53 | Sereno | 37 | 15 | 27 | 1015 | 10 | SO 22.2 | |
| Oggi h: 11:53 | Sereno | 37 | 17 | 30 | 1016 | 10 | SO 20.3 | |
| Oggi h: 10:53 | Sereno | 35 | 17 | 34 | 1016 | 10 | O/SO 25.9 | |
| Oggi h: 09:53 | Sereno | 33 | 18 | 41 | 1016 | 10 | SO 24 | |
| Oggi h: 08:53 | Sereno | 30 | 17 | 45 | 1016 | 10 | S 14.8 | |
| Oggi h: 07:53 | Sereno | 26 | 16 | 54 | 1016 | 10 | S/SE 9.3 | |
| Oggi h: 06:53 | Sereno | 24 | 16 | 60 | 1015 | 10 | S/SE 7.4 | |
| Oggi h: 05:53 | Sereno | 26 | 16 | 54 | 1014 | 10 | S 7.4 | |
| Oggi h: 04:53 | Sereno | 26 | 16 | 54 | 1014 | 10 | S 11.1 | |
| Oggi h: 03:53 | Sereno | 27 | 15 | 47 | 1013 | 10 | S 13 | |
| Oggi h: 02:53 | Sereno | 28 | 14 | 42 | 1013 | 10 | S 13 | |
| Oggi h: 01:53 | Sereno | 29 | 15 | 42 | 1013 | 10 | S 14.8 | |
| Oggi h: 00:53 | Sereno | 30 | 15 | 40 | 1013 | 10 | S 16.7 | |
| Ieri h: 23:53 | Sereno | 31 | 16 | 40 | 1013 | 10 | S 18.5 | |
| Ieri h: 22:53 | Sereno | 31 | 16 | 40 | 1012 | 10 | S 18.5 | |
| Ieri h: 21:53 | Sereno | 32 | 15 | 35 | 1012 | 10 | S 16.7 | |
| Ieri h: 20:53 | Sereno | 33 | 15 | 33 | 1011 | 10 | S/SE 13 | |
| Ieri h: 19:53 | Sereno | 36 | 14 | 26 | 1011 | 10 | S 14.8 | |
| Ieri h: 18:53 | Sereno | 38 | 14 | 24 | 1010 | 10 | S 18.5 | |
| Ieri h: 17:53 | Sereno | 39 | 13 | 21 | 1010 | 10 | S/SO 14.8 | |
| Ieri h: 16:53 | Sereno | 39 | 13 | 21 | 1011 | 10 | S 14.8 | |



